Time;durP1;ratioP1;P1;durP2;ratioP2;P2;SDS_P1;SDS_P2;PMS_P1;PMS_P2;Temp;Humidity;BMP_temperature;BMP_pressure;BME280_temperature;BME280_humidity;BME280_pressure;Samples;Min_cycle;Max_cycle;Signal;HPM_P1;HPM_P2
2022/04/16 00:00:40;;;;;;;6.45;4.95;;;24.10;80.40;;;;;;5208892;28;20052;-64
2022/04/16 00:03:11;;;;;;;5.35;4.63;;;24.20;80.50;;;;;;5208953;28;20165;-64
2022/04/16 00:05:42;;;;;;;5.82;4.82;;;24.20;80.10;;;;;;5208734;28;20035;-64
2022/04/16 00:08:13;;;;;;;5.60;5.00;;;24.20;79.70;;;;;;5208750;28;20041;-64
2022/04/16 00:10:44;;;;;;;5.63;4.78;;;24.20;80.10;;;;;;5208578;28;20037;-64
2022/04/16 00:13:16;;;;;;;5.30;4.57;;;24.20;80.00;;;;;;5208638;28;20331;-64
2022/04/16 00:15:55;;;;;;;5.35;4.45;;;24.10;80.00;;;;;;5208562;28;20018;-67
2022/04/16 00:18:27;;;;;;;5.55;4.80;;;24.20;80.00;;;;;;5208644;28;20436;-64
2022/04/16 00:20:57;;;;;;;5.70;4.85;;;24.10;80.00;;;;;;5208568;28;20038;-64
2022/04/16 00:23:28;;;;;;;10.57;5.00;;;24.00;80.00;;;;;;5208393;28;20017;-64
2022/04/16 00:26:02;;;;;;;7.35;5.15;;;24.00;80.00;;;;;;5208374;28;20026;-64
2022/04/16 00:28:35;;;;;;;6.50;4.97;;;23.90;80.20;;;;;;5208215;28;20038;-65
2022/04/16 00:31:06;;;;;;;6.93;5.07;;;23.90;80.30;;;;;;5208271;28;20052;-64
2022/04/16 00:33:37;;;;;;;7.82;5.90;;;23.80;80.50;;;;;;5208244;28;20442;-64
2022/04/16 00:36:08;;;;;;;6.90;5.55;;;23.70;80.80;;;;;;5208332;28;20350;-64
2022/04/16 00:38:39;;;;;;;7.10;5.18;;;23.70;80.80;;;;;;5208048;28;20021;-64
2022/04/16 00:41:12;;;;;;;9.73;5.65;;;23.50;80.80;;;;;;5208084;28;20457;-64
2022/04/16 00:43:43;;;;;;;6.75;5.65;;;23.60;80.90;;;;;;5207994;28;20151;-64
2022/04/16 00:46:14;;;;;;;7.53;5.30;;;23.50;80.90;;;;;;5207883;28;20112;-64
2022/04/16 00:48:44;;;;;;;6.22;5.22;;;23.50;81.00;;;;;;5207806;28;20047;-64
2022/04/16 00:51:15;;;;;;;5.28;4.43;;;23.30;81.10;;;;;;5207795;28;20454;-64
2022/04/16 00:53:46;;;;;;;6.95;5.30;;;23.30;81.00;;;;;;5207754;28;20049;-64
2022/04/16 00:56:17;;;;;;;6.85;5.53;;;23.30;81.00;;;;;;5207433;28;20485;-64
2022/04/16 00:58:48;;;;;;;6.85;5.40;;;23.20;81.20;;;;;;5207775;28;20159;-64
2022/04/16 01:01:19;;;;;;;6.55;5.00;;;23.20;81.00;;;;;;5207664;28;20032;-64
2022/04/16 01:03:50;;;;;;;5.57;4.93;;;23.20;81.20;;;;;;5207744;28;20026;-64
2022/04/16 01:06:21;;;;;;;6.38;5.32;;;23.10;81.40;;;;;;5207571;28;20385;-64
2022/04/16 01:08:52;;;;;;;7.15;5.20;;;23.00;81.20;;;;;;5207511;28;20099;-63
2022/04/16 01:11:23;;;;;;;8.20;5.28;;;23.00;81.50;;;;;;5207482;28;20018;-63
2022/04/16 01:13:53;;;;;;;6.18;4.82;;;23.00;81.50;;;;;;5207524;28;20079;-64
2022/04/16 01:16:24;;;;;;;6.13;4.63;;;22.90;81.80;;;;;;5207275;28;20026;-64
2022/04/16 01:18:55;;;;;;;6.05;4.70;;;22.90;81.80;;;;;;5207405;28;20114;-64
2022/04/16 01:21:27;;;;;;;5.50;4.82;;;22.80;81.60;;;;;;5207470;28;20026;-64
2022/04/16 01:23:58;;;;;;;5.88;4.72;;;22.80;81.70;;;;;;5207401;28;20097;-64
2022/04/16 01:26:29;;;;;;;5.70;4.85;;;22.70;81.80;;;;;;5207255;28;20108;-64
2022/04/16 01:29:01;;;;;;;5.60;4.60;;;22.70;82.00;;;;;;5207172;28;20041;-64
2022/04/16 01:31:32;;;;;;;5.68;4.85;;;22.60;82.00;;;;;;5207113;28;20100;-65
2022/04/16 01:34:03;;;;;;;5.40;4.38;;;22.60;82.10;;;;;;5206772;28;20489;-64
2022/04/16 01:36:34;;;;;;;5.45;4.53;;;22.60;82.10;;;;;;5207126;28;20091;-64
2022/04/16 01:39:07;;;;;;;6.68;4.70;;;22.50;82.20;;;;;;5207107;28;20350;-64
2022/04/16 01:41:40;;;;;;;5.93;4.63;;;22.50;82.20;;;;;;5207213;28;20064;-64
2022/04/16 01:44:11;;;;;;;7.15;4.63;;;22.50;82.50;;;;;;5207152;28;20456;-63
2022/04/16 01:46:42;;;;;;;6.78;4.63;;;22.40;82.40;;;;;;5206816;28;20041;-63
2022/04/16 01:49:13;;;;;;;8.00;5.20;;;22.40;82.50;;;;;;5206984;28;20056;-64
2022/04/16 01:51:44;;;;;;;6.20;4.82;;;22.40;82.40;;;;;;5206717;28;20028;-63
2022/04/16 01:54:15;;;;;;;7.30;5.05;;;22.30;82.50;;;;;;5206977;28;20029;-64
2022/04/16 01:56:46;;;;;;;7.30;4.78;;;22.30;82.50;;;;;;5206721;28;20041;-63
2022/04/16 01:59:17;;;;;;;6.30;4.93;;;22.20;82.70;;;;;;5206900;28;20128;-63
2022/04/16 02:01:48;;;;;;;6.20;4.78;;;22.20;82.70;;;;;;5207046;28;20033;-63
2022/04/16 02:04:19;;;;;;;6.00;4.68;;;22.20;82.80;;;;;;5206849;28;20516;-63
2022/04/16 02:06:50;;;;;;;6.38;4.97;;;22.10;82.90;;;;;;5206604;28;20025;-63
2022/04/16 02:09:21;;;;;;;6.28;5.00;;;22.00;82.90;;;;;;5206774;28;20040;-63
2022/04/16 02:11:52;;;;;;;9.50;5.25;;;22.00;82.90;;;;;;5206796;28;20014;-63
2022/04/16 02:14:23;;;;;;;8.52;5.72;;;22.00;82.90;;;;;;5206712;28;20405;-64
2022/04/16 02:16:53;;;;;;;8.65;5.20;;;22.00;83.10;;;;;;5206757;28;20040;-63
2022/04/16 02:19:24;;;;;;;8.63;5.43;;;21.90;83.20;;;;;;5206835;28;20087;-63
2022/04/16 02:21:55;;;;;;;8.38;5.78;;;21.80;83.10;;;;;;5206635;28;20375;-63
2022/04/16 02:24:27;;;;;;;9.63;5.70;;;21.80;83.20;;;;;;5206562;28;20116;-64
2022/04/16 02:26:58;;;;;;;10.93;6.03;;;21.70;83.10;;;;;;5206363;28;20037;-63
2022/04/16 02:29:29;;;;;;;11.52;5.85;;;21.70;83.30;;;;;;5206615;28;20545;-64
2022/04/16 02:32:02;;;;;;;7.10;5.43;;;21.70;83.30;;;;;;5206610;28;20061;-64
2022/04/16 02:34:33;;;;;;;8.40;6.10;;;21.60;83.20;;;;;;5206598;28;20021;-64
2022/04/16 02:37:04;;;;;;;7.88;5.78;;;21.60;83.10;;;;;;5206611;28;20075;-64
2022/04/16 02:39:34;;;;;;;10.25;5.88;;;21.60;83.10;;;;;;5206523;28;20026;-64
2022/04/16 02:42:05;;;;;;;8.27;6.07;;;21.50;83.10;;;;;;5206484;28;20361;-63
2022/04/16 02:47:25;;;;;;;10.50;6.25;;;21.50;83.50;;;;;;5209882;28;20052;-63
2022/04/16 02:49:56;;;;;;;8.20;6.28;;;21.40;83.50;;;;;;5210323;28;20037;-64
2022/04/16 02:52:27;;;;;;;9.35;6.20;;;21.40;83.40;;;;;;5210219;28;20424;-64
2022/04/16 02:54:58;;;;;;;9.43;6.57;;;21.40;83.70;;;;;;5210173;28;20076;-64
2022/04/16 02:57:30;;;;;;;11.73;6.97;;;21.30;83.50;;;;;;5209987;28;20045;-64
2022/04/16 03:00:02;;;;;;;10.00;6.95;;;21.30;83.80;;;;;;5209997;28;20064;-64
2022/04/16 03:02:33;;;;;;;10.10;6.90;;;21.30;83.80;;;;;;5210707;28;20033;-64
2022/04/16 03:05:06;;;;;;;10.50;6.75;;;21.30;84.00;;;;;;5209907;28;20061;-64
2022/04/16 03:07:38;;;;;;;9.40;6.30;;;21.20;84.00;;;;;;5210198;28;20037;-64
2022/04/16 03:10:09;;;;;;;12.00;7.00;;;21.20;83.80;;;;;;5209834;28;20017;-64
2022/04/16 03:12:51;;;;;;;10.65;7.30;;;21.10;83.90;;;;;;5209852;28;20028;-64
2022/04/16 03:18:11;;;;;;;10.93;7.13;;;21.10;83.80;;;;;;5210134;28;20039;-64
2022/04/16 03:20:42;;;;;;;10.75;6.47;;;21.00;83.70;;;;;;5209797;28;20025;-64
2022/04/16 03:23:13;;;;;;;10.18;7.18;;;21.00;84.00;;;;;;5209697;28;20412;-64
2022/04/16 03:25:44;;;;;;;12.90;7.63;;;21.00;83.40;;;;;;5209550;28;20037;-64
2022/04/16 03:28:15;;;;;;;11.75;7.72;;;21.00;84.20;;;;;;5209498;28;20358;-64
2022/04/16 03:30:46;;;;;;;11.30;7.40;;;20.90;83.70;;;;;;5209493;28;20056;-64
2022/04/16 03:33:17;;;;;;;12.30;7.85;;;20.90;84.00;;;;;;5209524;28;20401;-64
2022/04/16 03:35:48;;;;;;;13.00;7.60;;;20.90;84.30;;;;;;5209376;28;20388;-64
2022/04/16 03:38:19;;;;;;;14.63;7.95;;;20.90;84.60;;;;;;5209423;28;20022;-64
2022/04/16 03:40:50;;;;;;;10.90;7.22;;;20.80;84.20;;;;;;5209221;28;20100;-63
2022/04/16 03:43:25;;;;;;;12.57;7.80;;;20.80;84.40;;;;;;5209233;28;20029;-63
2022/04/16 03:45:56;;;;;;;11.93;8.02;;;20.80;84.30;;;;;;5209071;28;20029;-64
2022/04/16 03:48:27;;;;;;;12.60;8.00;;;20.70;84.10;;;;;;5209060;28;20034;-64
2022/04/16 03:50:58;;;;;;;10.10;7.50;;;20.70;84.20;;;;;;5209074;28;20026;-64
2022/04/16 03:53:29;;;;;;;11.50;7.40;;;20.70;84.40;;;;;;5209100;28;20052;-63
2022/04/16 04:01:39;;;;;;;13.10;8.13;;;20.60;84.40;;;;;;5209183;28;20038;-63
2022/04/16 04:04:10;;;;;;;12.93;8.18;;;20.60;84.50;;;;;;5208793;28;20117;-64
2022/04/16 04:06:41;;;;;;;12.25;8.15;;;20.60;84.20;;;;;;5208823;28;20025;-63
2022/04/16 04:09:12;;;;;;;11.27;7.70;;;20.60;84.50;;;;;;5208753;28;20095;-63
2022/04/16 04:11:43;;;;;;;12.38;7.90;;;20.60;84.60;;;;;;5208671;28;20025;-63
2022/04/16 04:14:13;;;;;;;12.43;7.80;;;20.50;84.80;;;;;;5208725;28;20029;-64
2022/04/16 04:16:44;;;;;;;12.55;8.00;;;20.50;84.40;;;;;;5208489;28;20071;-63
2022/04/16 04:19:15;;;;;;;12.23;8.35;;;20.50;84.60;;;;;;5208675;28;20104;-63
2022/04/16 04:21:46;;;;;;;13.77;8.13;;;20.50;84.50;;;;;;5208623;28;20084;-64
2022/04/16 04:24:16;;;;;;;11.63;7.45;;;20.50;84.40;;;;;;5208599;28;20083;-63
2022/04/16 04:26:47;;;;;;;13.75;8.30;;;20.50;84.80;;;;;;5207855;28;20033;-69
2022/04/16 04:29:18;;;;;;;14.75;8.70;;;20.50;84.50;;;;;;5205693;28;20041;-67
2022/04/16 04:31:49;;;;;;;17.02;8.93;;;20.30;85.00;;;;;;5208217;28;20029;-67
2022/04/16 04:34:20;;;;;;;13.25;8.30;;;20.20;84.60;;;;;;5208559;28;20437;-66
2022/04/16 04:36:51;;;;;;;14.88;8.88;;;20.30;84.90;;;;;;5208488;28;20025;-67
2022/04/16 04:39:22;;;;;;;12.95;8.77;;;20.40;85.10;;;;;;5208109;28;20025;-67
2022/04/16 04:41:53;;;;;;;12.35;7.85;;;20.40;85.00;;;;;;5208033;28;20051;-62
2022/04/16 04:44:23;;;;;;;17.70;11.50;;;20.40;85.00;;;;;;5208013;28;20163;-63
2022/04/16 04:46:55;;;;;;;17.17;9.40;;;20.00;82.30;;;;;;5188890;28;20143;-66
2022/04/16 04:49:26;;;;;;;16.23;9.35;;;20.10;85.10;;;;;;5196271;28;20112;-66
2022/04/16 04:51:57;;;;;;;16.10;10.40;;;20.20;85.50;;;;;;5201426;28;20030;-65
2022/04/16 04:54:27;;;;;;;17.77;10.30;;;20.10;85.40;;;;;;5203551;28;20029;-65
2022/04/16 04:56:58;;;;;;;14.40;9.18;;;20.20;85.40;;;;;;5203448;28;20060;-64
2022/04/16 04:59:29;;;;;;;16.10;9.30;;;20.30;86.10;;;;;;5169034;28;20949;-65
2022/04/16 05:02:00;;;;;;;22.40;8.95;;;20.10;86.20;;;;;;5180595;28;20136;-65
2022/04/16 05:04:31;;;;;;;18.27;10.75;;;20.20;86.20;;;;;;5203171;28;20064;-61
2022/04/16 05:07:03;;;;;;;21.20;9.65;;;19.90;84.00;;;;;;5203323;28;20026;-62
2022/04/16 05:09:34;;;;;;;22.58;9.93;;;20.00;86.60;;;;;;5202233;28;20562;-61
2022/04/16 05:12:05;;;;;;;25.17;9.57;;;20.20;87.20;;;;;;5203515;28;20029;-62
2022/04/16 05:14:36;;;;;;;24.17;9.57;;;20.20;87.40;;;;;;5203047;28;20037;-62
2022/04/16 05:17:07;;;;;;;25.25;9.77;;;20.20;87.30;;;;;;5203066;28;20037;-62
2022/04/16 05:19:38;;;;;;;23.58;9.15;;;20.30;87.90;;;;;;5202400;28;20033;-64
2022/04/16 05:22:08;;;;;;;21.70;8.73;;;20.40;87.90;;;;;;5203378;28;20334;-65
2022/04/16 05:24:39;;;;;;;24.25;9.20;;;20.30;88.20;;;;;;5202720;28;20720;-64
2022/04/16 05:27:11;;;;;;;23.67;9.15;;;20.30;88.60;;;;;;5203257;28;20029;-64
2022/04/16 05:29:56;;;;;;;26.08;9.00;;;20.30;88.80;;;;;;5202584;28;20049;-64
2022/04/16 05:32:36;;;;;;;22.88;10.05;;;20.30;88.80;;;;;;5202598;28;20432;-68
2022/04/16 05:35:18;;;;;;;;;;;20.20;87.70;;;;;;5203552;28;20033;-67
2022/04/16 05:37:49;;;;;;;23.88;10.60;;;20.40;89.10;;;;;;5202896;28;20277;-63
2022/04/16 05:40:24;;;;;;;24.30;10.30;;;19.80;87.90;;;;;;5204597;28;20093;-66
2022/04/16 05:42:55;;;;;;;20.05;9.55;;;20.10;90.90;;;;;;5233896;28;20457;-63
2022/04/16 05:45:26;;;;;;;24.20;9.88;;;20.20;89.20;;;;;;5202552;28;20017;-64
2022/04/16 05:47:57;;;;;;;22.80;9.95;;;20.20;88.80;;;;;;5202639;28;20120;-63
2022/04/16 05:50:27;;;;;;;26.38;10.38;;;20.30;88.90;;;;;;5201934;28;20021;-63
2022/04/16 05:52:58;;;;;;;21.48;9.82;;;20.30;88.80;;;;;;5202599;28;20033;-66
2022/04/16 05:55:29;;;;;;;25.45;10.52;;;20.40;89.20;;;;;;5201817;28;20032;-65
2022/04/16 05:58:01;;;;;;;21.08;10.98;;;20.20;88.40;;;;;;5201468;28;20133;-64
2022/04/16 06:00:32;;;;;;;17.45;10.15;;;20.10;86.80;;;;;;5201000;28;20075;-63
2022/04/16 06:03:04;;;;;;;20.80;11.55;;;20.20;86.80;;;;;;5201884;28;20029;-64
2022/04/16 06:05:35;;;;;;;20.23;12.13;;;20.10;86.60;;;;;;5202343;28;20385;-63
2022/04/16 06:08:14;;;;;;;18.13;10.48;;;20.10;86.20;;;;;;5202452;28;20034;-63
2022/04/16 06:10:45;;;;;;;19.63;10.70;;;20.10;86.70;;;;;;5202419;28;20710;-63
2022/04/16 06:13:15;;;;;;;23.55;11.23;;;20.10;86.10;;;;;;5202373;28;20014;-66
2022/04/16 06:15:46;;;;;;;25.13;11.55;;;20.00;86.40;;;;;;5201785;28;20049;-64
2022/04/16 06:18:17;;;;;;;18.65;10.73;;;20.00;86.60;;;;;;5201687;28;20009;-65
2022/04/16 06:20:48;;;;;;;17.35;10.07;;;20.00;86.40;;;;;;5203124;28;20018;-63
2022/04/16 06:23:20;;;;;;;23.98;11.27;;;20.00;87.60;;;;;;5205618;28;20022;-65
2022/04/16 06:25:51;;;;;;;20.45;10.95;;;20.00;87.40;;;;;;5206368;28;20061;-64
2022/04/16 06:28:22;;;;;;;18.42;10.02;;;20.00;87.90;;;;;;5206524;28;20101;-64
2022/04/16 06:30:53;;;;;;;18.67;10.40;;;20.00;87.90;;;;;;5206523;28;20022;-63
2022/04/16 06:33:24;;;;;;;17.88;10.18;;;20.00;87.70;;;;;;5206317;28;20045;-63
2022/04/16 06:35:54;;;;;;;18.52;10.07;;;20.00;88.30;;;;;;5206321;28;20108;-64
2022/04/16 06:38:26;;;;;;;20.55;10.88;;;20.00;88.10;;;;;;5206192;28;20509;-63
2022/04/16 06:40:56;;;;;;;20.38;10.27;;;20.00;88.30;;;;;;5206397;28;20018;-65
2022/04/16 06:43:27;;;;;;;18.48;9.95;;;20.00;88.20;;;;;;5206182;28;20446;-63
2022/04/16 06:45:58;;;;;;;21.65;10.77;;;20.00;88.70;;;;;;5205758;28;20533;-62
2022/04/16 06:48:29;;;;;;;18.42;10.50;;;20.00;88.10;;;;;;5205394;28;20042;-63
2022/04/16 06:51:00;;;;;;;22.10;10.43;;;20.10;88.70;;;;;;5206222;28;20108;-62
2022/04/16 06:53:30;;;;;;;19.55;10.65;;;20.10;88.50;;;;;;5206017;28;20025;-63
2022/04/16 06:56:01;;;;;;;18.65;10.82;;;20.10;88.90;;;;;;5205225;28;20087;-63
2022/04/16 06:58:32;;;;;;;19.65;10.05;;;20.10;89.20;;;;;;5204030;28;20586;-63
2022/04/16 07:01:03;;;;;;;22.30;9.90;;;20.10;89.00;;;;;;5205729;28;20037;-64
2022/04/16 07:03:34;;;;;;;17.67;9.45;;;20.10;89.40;;;;;;5205174;28;20037;-65
2022/04/16 07:06:04;;;;;;;21.60;10.73;;;20.10;89.60;;;;;;5204470;28;20040;-65
2022/04/16 07:08:35;;;;;;;16.85;9.85;;;20.20;89.80;;;;;;5205278;28;20132;-66
2022/04/16 07:11:06;;;;;;;39.97;15.00;;;20.20;89.80;;;;;;5199665;28;20115;-65
2022/04/16 07:13:37;;;;;;;202.18;43.13;;;20.30;90.10;;;;;;5205026;28;20026;-61
2022/04/16 07:16:08;;;;;;;115.00;25.38;;;20.30;93.30;;;;;;5205155;28;20014;-63
2022/04/16 07:18:39;;;;;;;93.22;23.42;;;20.30;93.20;;;;;;5204713;28;20029;-62
2022/04/16 07:21:10;;;;;;;76.45;19.83;;;20.30;93.10;;;;;;5204594;28;20057;-64
2022/04/16 07:23:40;;;;;;;66.47;20.30;;;20.20;93.30;;;;;;5203654;28;20040;-66
2022/04/16 07:26:11;;;;;;;71.55;18.35;;;20.20;92.80;;;;;;5204708;28;20033;-65
2022/04/16 07:28:42;;;;;;;73.40;19.63;;;20.50;93.50;;;;;;5201583;28;20041;-63
2022/04/16 07:31:13;;;;;;;68.00;18.13;;;21.00;91.90;;;;;;5203442;28;20082;-63
2022/04/16 07:33:44;;;;;;;63.53;17.75;;;20.60;93.20;;;;;;5204291;28;20033;-64
2022/04/16 07:36:15;;;;;;;50.95;16.95;;;20.50;94.00;;;;;;5207472;28;20025;-65
2022/04/16 07:38:46;;;;;;;64.63;18.08;;;20.40;93.80;;;;;;5206879;28;20059;-63
2022/04/16 07:41:17;;;;;;;56.95;16.50;;;20.40;94.50;;;;;;5210108;28;20028;-62
2022/04/16 07:43:48;;;;;;;51.08;16.88;;;20.40;95.00;;;;;;5204649;28;20017;-62
2022/04/16 07:46:22;;;;;;;57.30;16.88;;;20.40;95.20;;;;;;5204918;28;20021;-64
2022/04/16 07:48:57;;;;;;;46.65;15.90;;;20.40;95.50;;;;;;5204763;28;20041;-63
2022/04/16 07:51:29;;;;;;;45.08;15.48;;;20.30;95.50;;;;;;5204920;28;20037;-64
2022/04/16 07:54:00;;;;;;;52.03;17.75;;;20.30;95.60;;;;;;5204955;28;20057;-64
2022/04/16 07:56:31;;;;;;;54.90;14.98;;;20.30;95.50;;;;;;5204522;28;20806;-63
2022/04/16 07:59:02;;;;;;;49.08;16.02;;;20.30;95.50;;;;;;5205096;28;20707;-65
2022/04/16 08:01:33;;;;;;;42.55;14.63;;;20.30;95.60;;;;;;5204035;28;20535;-64
2022/04/16 08:04:04;;;;;;;57.72;14.05;;;20.30;95.70;;;;;;5203808;28;20037;-65
2022/04/16 08:06:35;;;;;;;51.22;13.90;;;20.30;95.80;;;;;;5204496;28;20030;-65
2022/04/16 08:09:06;;;;;;;44.50;14.55;;;20.30;95.90;;;;;;5204488;28;20044;-65
2022/04/16 08:11:36;;;;;;;42.75;12.98;;;20.30;95.70;;;;;;5204108;28;20030;-62
2022/04/16 08:14:07;;;;;;;44.05;14.07;;;20.30;95.50;;;;;;5203973;28;20029;-64
2022/04/16 08:16:38;;;;;;;43.63;13.32;;;20.30;95.70;;;;;;5193651;28;20033;-65
2022/04/16 08:19:09;;;;;;;43.53;14.23;;;20.30;95.60;;;;;;5199441;28;20124;-66
2022/04/16 08:21:40;;;;;;;41.65;13.25;;;20.30;96.10;;;;;;5203476;28;20106;-64
2022/04/16 08:26:42;;;;;;;35.15;12.82;;;20.30;96.30;;;;;;5204063;28;20094;-65
2022/04/16 08:29:13;;;;;;;36.47;11.93;;;20.30;95.90;;;;;;5204423;28;20090;-66
2022/04/16 08:31:43;;;;;;;37.40;12.50;;;20.20;95.50;;;;;;5204114;28;20187;-65
2022/04/16 08:34:15;;;;;;;32.10;11.43;;;20.30;96.30;;;;;;5204402;28;20049;-65
2022/04/16 08:36:45;;;;;;;26.58;10.55;;;20.30;94.70;;;;;;5203833;28;20026;-65
2022/04/16 08:39:22;;;;;;;23.75;9.02;;;20.30;94.00;;;;;;5201453;28;20014;-65
2022/04/16 08:41:56;;;;;;;27.00;9.18;;;20.30;92.40;;;;;;5202946;28;20354;-66
2022/04/16 08:44:27;;;;;;;22.27;8.52;;;20.20;91.10;;;;;;5203633;28;20380;-62
2022/04/16 08:46:59;;;;;;;25.13;8.80;;;20.30;93.30;;;;;;5203901;28;20048;-64
2022/04/16 08:49:30;;;;;;;26.77;9.35;;;20.20;91.60;;;;;;5203596;28;20088;-64
2022/04/16 08:52:06;;;;;;;15.25;6.97;;;20.20;92.50;;;;;;5204221;28;20523;-65
2022/04/16 08:54:39;;;;;;;22.25;7.20;;;20.10;87.70;;;;;;5203772;28;20389;-63
2022/04/16 08:57:10;;;;;;;17.20;7.20;;;20.20;87.50;;;;;;5203903;28;20488;-64
2022/04/16 08:59:51;;;;;;;20.15;7.20;;;20.20;86.50;;;;;;5203710;28;20486;-65
2022/04/16 09:02:26;;;;;;;19.23;6.80;;;20.20;85.20;;;;;;5203478;28;20537;-65
2022/04/16 09:05:18;;;;;;;22.58;6.97;;;20.20;85.40;;;;;;5203185;28;20484;-64
2022/04/16 09:07:56;;;;;;;18.17;6.40;;;20.20;84.20;;;;;;5203686;28;20018;-65
2022/04/16 09:10:29;;;;;;;13.95;6.15;;;20.20;82.00;;;;;;5203317;28;20029;-63
2022/04/16 09:13:02;;;;;;;16.50;5.80;;;20.20;82.70;;;;;;5202237;28;20014;-63
2022/04/16 09:15:34;;;;;;;12.90;5.70;;;20.20;82.40;;;;;;5202873;28;20533;-65
2022/04/16 09:18:08;;;;;;;10.88;5.05;;;20.20;82.00;;;;;;5199145;28;20064;-65
2022/04/16 09:20:40;;;;;;;16.40;5.90;;;20.20;81.80;;;;;;5203181;28;20470;-65
2022/04/16 09:23:19;;;;;;;13.27;5.53;;;20.30;82.50;;;;;;5203882;28;20467;-65
2022/04/16 09:25:50;;;;;;;12.63;5.20;;;20.30;83.00;;;;;;5202995;28;20065;-62
2022/04/16 09:28:21;;;;;;;17.45;5.75;;;20.30;83.80;;;;;;5200882;28;20481;-65
2022/04/16 09:30:56;;;;;;;16.17;4.93;;;20.30;84.20;;;;;;5203398;28;20025;-64
2022/04/16 09:33:37;;;;;;;11.98;5.25;;;20.30;84.20;;;;;;5203088;28;20101;-65
2022/04/16 09:36:08;;;;;;;12.63;4.53;;;20.40;83.90;;;;;;5203246;28;20064;-65
2022/04/16 09:38:40;;;;;;;11.15;4.43;;;20.40;84.60;;;;;;5202495;28;20069;-65
2022/04/16 09:41:14;;;;;;;11.95;4.32;;;20.30;83.50;;;;;;5203118;28;20029;-65
2022/04/16 09:43:45;;;;;;;11.20;4.18;;;20.30;83.60;;;;;;5234976;28;20108;-65
2022/04/16 09:46:16;;;;;;;19.17;4.85;;;20.40;83.50;;;;;;5202762;28;20100;-65
2022/04/16 09:48:47;;;;;;;21.55;4.35;;;20.30;83.80;;;;;;5202766;28;20033;-65
2022/04/16 09:51:21;;;;;;;19.63;5.75;;;20.40;83.80;;;;;;5206708;28;20029;-62
2022/04/16 09:53:54;;;;;;;28.70;5.43;;;20.40;83.80;;;;;;5206792;28;20048;-62
2022/04/16 09:56:28;;;;;;;19.30;4.82;;;20.30;84.20;;;;;;5206337;28;20041;-62
2022/04/16 09:59:02;;;;;;;14.13;4.60;;;20.30;84.40;;;;;;5206875;28;20041;-62
2022/04/16 10:01:34;;;;;;;16.63;4.80;;;20.30;84.60;;;;;;5206985;28;20088;-62
2022/04/16 10:04:07;;;;;;;14.68;4.55;;;20.30;84.70;;;;;;5206806;28;20100;-62
2022/04/16 10:06:38;;;;;;;13.15;4.72;;;20.30;85.30;;;;;;5206878;28;20022;-62
2022/04/16 10:09:17;;;;;;;14.63;4.82;;;20.30;85.50;;;;;;5206697;28;20067;-62
2022/04/16 10:15:03;;;;;;;9.98;4.35;;;20.30;85.70;;;;;;5206680;28;20310;-62
2022/04/16 10:17:38;;;;;;;12.32;4.82;;;20.30;85.80;;;;;;5205909;28;20029;-62
2022/04/16 10:20:21;;;;;;;11.25;4.20;;;20.30;85.60;;;;;;5205735;28;20033;-66
2022/04/16 10:23:07;;;;;;;11.13;4.10;;;20.30;85.50;;;;;;5204149;28;20037;-65
2022/04/16 10:25:41;;;;;;;8.85;3.80;;;20.30;85.20;;;;;;5202808;28;20018;-66
2022/04/16 10:28:20;;;;;;;14.43;4.03;;;20.30;85.00;;;;;;5199751;28;20033;-62
2022/04/16 10:30:55;;;;;;;8.30;4.10;;;20.30;84.80;;;;;;5206527;28;20032;-65
2022/04/16 10:33:27;;;;;;;8.18;3.60;;;20.30;84.60;;;;;;5206550;28;20048;-64
2022/04/16 10:36:09;;;;;;;10.55;4.28;;;20.30;84.40;;;;;;5206467;28;20025;-65
2022/04/16 10:38:41;;;;;;;10.55;4.30;;;20.30;84.80;;;;;;5206564;28;20068;-62
2022/04/16 10:41:18;;;;;;;6.97;3.85;;;20.20;84.80;;;;;;5206465;28;20105;-65
2022/04/16 10:44:00;;;;;;;11.18;3.80;;;20.30;84.90;;;;;;5206357;28;20013;-64
2022/04/16 10:46:48;;;;;;;6.97;3.85;;;20.30;84.50;;;;;;5206389;28;20033;-65
2022/04/16 10:49:20;;;;;;;8.10;3.45;;;20.30;83.70;;;;;;5206255;28;20033;-62
2022/04/16 10:51:52;;;;;;;10.10;3.03;;;20.30;83.70;;;;;;5206345;28;20053;-62
2022/04/16 10:54:28;;;;;;;10.50;3.58;;;20.30;82.20;;;;;;5206244;28;20036;-62
2022/04/16 10:57:00;;;;;;;6.15;3.28;;;20.30;81.90;;;;;;5206111;28;20057;-62
2022/04/16 10:59:42;;;;;;;9.13;3.60;;;20.30;80.70;;;;;;5204521;28;20036;-65
2022/04/16 11:02:22;;;;;;;7.47;3.25;;;20.30;80.40;;;;;;5206296;28;20028;-62
2022/04/16 11:05:05;;;;;;;9.70;3.22;;;20.30;79.80;;;;;;5205609;28;20026;-65
2022/04/16 11:07:38;;;;;;;7.80;3.17;;;20.40;80.50;;;;;;5207659;28;20036;-62
2022/04/16 11:10:11;;;;;;;7.70;3.33;;;20.30;79.20;;;;;;5209905;28;20030;-62
2022/04/16 11:12:44;;;;;;;9.48;3.75;;;20.30;78.50;;;;;;5209857;28;20151;-62
2022/04/16 11:15:24;;;;;;;7.10;2.90;;;20.30;78.50;;;;;;5209764;28;20029;-62
2022/04/16 11:17:59;;;;;;;9.10;3.60;;;20.30;78.10;;;;;;5210101;28;20799;-65
2022/04/16 11:20:30;;;;;;;8.00;3.00;;;20.30;78.80;;;;;;5209914;28;20056;-62
2022/04/16 11:23:09;;;;;;;8.05;3.10;;;20.30;77.60;;;;;;5209547;28;20025;-62
2022/04/16 11:34:14;;;;;;;8.32;3.00;;;20.20;76.80;;;;;;5209495;28;20262;-62
2022/04/16 11:36:51;;;;;;;9.20;2.92;;;20.30;76.40;;;;;;5209506;28;20025;-62
2022/04/16 11:39:27;;;;;;;6.90;3.25;;;20.30;77.20;;;;;;5209411;28;20480;-62
2022/04/16 11:41:59;;;;;;;6.40;3.05;;;20.30;76.40;;;;;;5209283;28;20036;-63
2022/04/16 11:44:41;;;;;;;8.13;2.65;;;20.30;76.60;;;;;;5209155;28;20461;-62
2022/04/16 11:47:20;;;;;;;9.13;3.38;;;20.30;76.60;;;;;;5209338;28;20025;-62
2022/04/16 11:49:53;;;;;;;7.80;3.05;;;20.30;76.60;;;;;;5209270;28;20072;-62
2022/04/16 11:52:29;;;;;;;5.70;2.88;;;20.30;76.10;;;;;;5209183;28;20036;-64
2022/04/16 11:55:06;;;;;;;6.65;2.55;;;20.30;76.20;;;;;;5209170;28;20029;-63
2022/04/16 11:57:43;;;;;;;4.70;2.97;;;20.30;74.80;;;;;;5207678;28;20081;-62
2022/04/16 12:00:15;;;;;;;10.07;3.05;;;20.30;74.90;;;;;;5208321;28;20021;-62
2022/04/16 12:02:49;;;;;;;7.68;2.75;;;20.30;74.30;;;;;;5207864;28;20021;-62
2022/04/16 12:05:30;;;;;;;6.75;3.10;;;20.30;74.50;;;;;;5208366;28;20029;-63
2022/04/16 12:08:01;;;;;;;8.27;3.05;;;20.30;75.00;;;;;;5208649;28;20125;-62
2022/04/16 12:10:32;;;;;;;7.15;2.67;;;20.30;75.40;;;;;;5208751;28;20032;-62
2022/04/16 12:13:11;;;;;;;7.65;3.20;;;20.30;75.60;;;;;;5208686;28;20120;-63
2022/04/16 12:15:44;;;;;;;8.00;2.40;;;20.20;75.00;;;;;;5208396;28;20018;-62
2022/04/16 12:18:18;;;;;;;6.75;2.65;;;20.30;74.80;;;;;;5208346;28;20052;-62
2022/04/16 12:20:49;;;;;;;7.65;2.97;;;20.20;74.60;;;;;;5208583;28;20021;-62
2022/04/16 12:23:24;;;;;;;9.43;2.70;;;20.30;75.20;;;;;;5208587;28;20082;-62
2022/04/16 12:26:06;;;;;;;4.25;2.72;;;20.30;75.30;;;;;;5208449;28;20037;-65
2022/04/16 12:28:43;;;;;;;7.30;3.63;;;20.30;75.30;;;;;;5208178;28;20045;-62
2022/04/16 12:31:25;;;;;;;9.45;3.40;;;20.30;76.10;;;;;;5208256;28;20029;-62
2022/04/16 12:33:56;;;;;;;6.15;3.38;;;20.30;77.00;;;;;;5208135;28;20041;-62
2022/04/16 12:36:27;;;;;;;8.75;3.65;;;20.30;77.40;;;;;;5207596;28;20018;-65
2022/04/16 12:38:57;;;;;;;13.20;3.80;;;20.30;77.60;;;;;;5208368;28;20029;-65
2022/04/16 12:41:28;;;;;;;9.48;4.00;;;20.30;78.10;;;;;;5208284;28;20025;-65
2022/04/16 12:43:59;;;;;;;8.38;3.38;;;20.30;78.20;;;;;;5208202;28;20072;-65
2022/04/16 12:46:30;;;;;;;10.55;4.35;;;20.30;78.60;;;;;;5207993;28;20033;-65
2022/04/16 12:49:00;;;;;;;8.30;4.32;;;20.30;78.50;;;;;;5208041;28;20048;-62
2022/04/16 12:51:31;;;;;;;11.18;4.85;;;20.30;79.10;;;;;;5208015;28;20051;-63
2022/04/16 12:54:02;;;;;;;11.27;5.03;;;20.30;79.40;;;;;;5207927;28;20029;-65
2022/04/16 12:56:33;;;;;;;11.13;4.75;;;20.20;79.90;;;;;;5207576;28;20072;-62
2022/04/16 12:59:03;;;;;;;11.00;5.47;;;20.20;80.50;;;;;;5207943;28;20029;-63
2022/04/16 13:01:34;;;;;;;9.75;4.97;;;20.20;80.60;;;;;;5207845;28;20032;-63
2022/04/16 13:04:05;;;;;;;10.27;4.95;;;20.20;80.60;;;;;;5207868;28;20057;-63
2022/04/16 13:06:36;;;;;;;11.95;5.53;;;20.20;80.80;;;;;;5207804;28;20029;-62
2022/04/16 13:09:07;;;;;;;11.35;5.28;;;20.20;80.90;;;;;;5207430;28;20041;-62
2022/04/16 13:11:38;;;;;;;14.48;6.00;;;20.20;81.30;;;;;;5207702;28;20020;-62
2022/04/16 13:14:09;;;;;;;11.95;5.00;;;20.20;81.30;;;;;;5207618;28;20041;-62
2022/04/16 13:16:40;;;;;;;10.43;5.00;;;20.20;81.40;;;;;;5207508;28;20104;-62
2022/04/16 13:19:10;;;;;;;13.48;4.97;;;20.20;81.60;;;;;;5232175;28;20076;-62
2022/04/16 13:21:43;;;;;;;9.73;5.15;;;20.10;81.90;;;;;;5207444;28;20033;-62
2022/04/16 13:24:15;;;;;;;10.85;5.07;;;20.10;82.00;;;;;;5207445;28;20033;-64
2022/04/16 13:26:46;;;;;;;9.38;4.93;;;20.10;82.30;;;;;;5205969;28;20056;-64
2022/04/16 13:29:17;;;;;;;10.50;5.22;;;20.10;82.40;;;;;;5209401;28;20080;-64